KDMO/DMO METAR and TAF weather

Enter ICAO airport designator
Station Type Date Time Source
KDMO METAR 2021/05/11 20:53 UTC NOAA

KDMO 112053Z AUTO 05009KT 10SM FEW025 BKN055 OVC120 14/08 A3026 RMK AO2 SLP247 60000 T01390083 53001


Station Type Date Time Source
KDMO Decoded METAR 2021/05/11 20:53 UTC NOAA

SEDALIA MEMORIAL AIRPORT, MO, United States (KDMO) 38-43N 93-10W 274M
May 11, 2021 - 04:53 PM EDT / 2021.05.11 2053 UTC
Wind: from the NE (050 degrees) at 10 MPH (9 KT):0
Visibility: 10 mile(s):0
Sky conditions: overcast
Temperature: 57.0 F (13.9 C)
Dew Point: 46.9 F (8.3 C)
Relative Humidity: 68%
Pressure (altimeter): 30.26 in. Hg (1024 hPa)
Pressure tendency: 0.00 inches (0.1 hPa) higher than three hours ago
ob: KDMO 112053Z AUTO 05009KT 10SM FEW025 BKN055 OVC120 14/08 A3026 RMK AO2 SLP247 60000 T01390083 53001
cycle: 21

Station Type Date Time Source
KDMO TAF UTC NOAA

Error!

Example: see airport list